Time;durP1;ratioP1;P1;durP2;ratioP2;P2;SDS_P1;SDS_P2;PMS_P1;PMS_P2;Temp;Humidity;BMP_temperature;BMP_pressure;BME280_temperature;BME280_humidity;BME280_pressure;Samples;Min_cycle;Max_cycle;Signal;HPM_P1;HPM_P2
2023/04/18 00:00:13;;;;;;;11.73;7.88;;;10.60;90.60;;;;;;5093980;28;20043;-77
2023/04/18 00:02:38;;;;;;;12.93;8.40;;;10.80;89.50;;;;;;5093884;28;20036;-77
2023/04/18 00:05:06;;;;;;;10.65;7.18;;;10.70;87.60;;;;;;5094100;28;20099;-77
2023/04/18 00:07:33;;;;;;;14.13;7.65;;;10.70;87.60;;;;;;5075637;28;20032;-77
2023/04/18 00:09:58;;;;;;;16.30;7.65;;;10.70;86.70;;;;;;5093957;28;20042;-77
2023/04/18 00:12:24;;;;;;;15.20;7.57;;;10.50;87.30;;;;;;5075682;28;20446;-78
2023/04/18 00:14:51;;;;;;;13.00;7.78;;;10.50;87.40;;;;;;5058918;28;20028;-77
2023/04/18 00:17:17;;;;;;;12.93;7.78;;;10.50;87.00;;;;;;5076191;28;20028;-78
2023/04/18 00:19:43;;;;;;;11.23;6.97;;;10.40;86.80;;;;;;5093425;28;20450;-78
2023/04/18 00:22:12;;;;;;;10.82;7.22;;;10.30;87.40;;;;;;5094301;28;20112;-77
2023/04/18 00:24:38;;;;;;;12.85;7.32;;;10.20;86.90;;;;;;5042471;28;20036;-77
2023/04/18 00:27:04;;;;;;;11.10;7.60;;;10.20;86.90;;;;;;5059339;28;20123;-77
2023/04/18 00:29:33;;;;;;;11.77;7.57;;;10.20;87.10;;;;;;5096527;28;20127;-77
2023/04/18 00:31:58;;;;;;;13.38;6.65;;;10.20;86.70;;;;;;5080168;28;20028;-77
2023/04/18 00:34:24;;;;;;;13.90;8.00;;;10.10;86.70;;;;;;5079580;28;20430;-77
2023/04/18 00:36:50;;;;;;;12.63;7.50;;;10.10;86.90;;;;;;5097639;28;20032;-77
2023/04/18 00:39:15;;;;;;;13.18;7.10;;;10.20;86.20;;;;;;5062624;28;20032;-79
2023/04/18 00:41:41;;;;;;;14.93;7.05;;;10.40;85.20;;;;;;5046693;28;20123;-77
2023/04/18 00:44:07;;;;;;;10.98;6.88;;;10.30;84.70;;;;;;5079472;28;20025;-78
2023/04/18 00:46:32;;;;;;;12.13;7.35;;;10.30;84.40;;;;;;5062346;28;20028;-77
2023/04/18 00:48:58;;;;;;;14.95;7.85;;;10.20;83.90;;;;;;5079308;28;20036;-77
2023/04/18 00:51:24;;;;;;;10.25;6.32;;;10.00;84.20;;;;;;5062483;28;20028;-77
2023/04/18 00:53:50;;;;;;;12.07;7.72;;;10.00;86.00;;;;;;5078892;28;20503;-78
2023/04/18 00:56:16;;;;;;;13.13;6.47;;;10.00;84.80;;;;;;5062963;28;20032;-77
2023/04/18 00:58:42;;;;;;;10.57;6.88;;;9.80;85.40;;;;;;5079181;28;20468;-78
2023/04/18 01:01:08;;;;;;;9.10;6.05;;;9.80;85.70;;;;;;5096619;28;20056;-77
2023/04/18 01:03:34;;;;;;;11.52;7.95;;;9.90;86.90;;;;;;5079071;28;20078;-77
2023/04/18 01:06:00;;;;;;;12.88;7.47;;;10.00;84.10;;;;;;5062202;28;20067;-77
2023/04/18 01:08:26;;;;;;;12.38;7.53;;;9.90;84.30;;;;;;5078841;28;20131;-77
2023/04/18 01:10:52;;;;;;;12.00;7.45;;;9.80;85.60;;;;;;5078898;28;20082;-78
2023/04/18 01:13:19;;;;;;;13.25;7.18;;;9.70;84.10;;;;;;5078774;28;20043;-78
2023/04/18 01:15:47;;;;;;;9.82;6.97;;;9.50;84.80;;;;;;5096883;28;20047;-77
2023/04/18 01:18:15;;;;;;;12.30;7.43;;;9.40;85.00;;;;;;5078734;28;20028;-78
2023/04/18 01:20:47;;;;;;;11.40;7.18;;;9.40;84.90;;;;;;5096777;28;20036;-77
2023/04/18 01:23:13;;;;;;;12.55;7.90;;;9.30;85.10;;;;;;5078508;28;20169;-77
2023/04/18 01:25:39;;;;;;;11.35;7.40;;;9.40;85.60;;;;;;5061661;28;20029;-78
2023/04/18 01:28:06;;;;;;;13.88;7.90;;;9.30;84.90;;;;;;5061841;28;20046;-78
2023/04/18 01:30:33;;;;;;;12.73;7.05;;;9.20;85.00;;;;;;5096612;28;20132;-78
2023/04/18 01:33:03;;;;;;;13.27;7.32;;;9.30;85.20;;;;;;5096297;28;20055;-77
2023/04/18 01:35:29;;;;;;;12.98;6.82;;;9.30;85.50;;;;;;5078915;28;20051;-77
2023/04/18 01:37:56;;;;;;;11.10;7.35;;;9.30;84.90;;;;;;5096512;28;20441;-77
2023/04/18 01:40:22;;;;;;;9.85;6.82;;;9.30;85.60;;;;;;5045088;28;20039;-77
2023/04/18 01:42:47;;;;;;;12.63;7.22;;;9.40;85.20;;;;;;5078780;28;20032;-78
2023/04/18 01:45:14;;;;;;;19.85;8.30;;;9.50;84.10;;;;;;5078424;28;20028;-77
2023/04/18 01:47:40;;;;;;;12.48;7.05;;;9.50;84.20;;;;;;5096299;28;20032;-77
2023/04/18 01:50:06;;;;;;;12.25;7.15;;;9.50;84.20;;;;;;5078257;28;20387;-77
2023/04/18 01:52:32;;;;;;;9.88;7.07;;;9.50;83.90;;;;;;5077753;28;20020;-78
2023/04/18 01:54:57;;;;;;;12.65;7.00;;;9.50;84.80;;;;;;5096163;28;20396;-77
2023/04/18 01:57:23;;;;;;;11.82;7.50;;;9.60;83.90;;;;;;5077942;28;20533;-78
2023/04/18 01:59:49;;;;;;;14.68;7.28;;;9.50;83.10;;;;;;5096068;28;20448;-76
2023/04/18 02:02:15;;;;;;;11.88;6.95;;;9.40;83.70;;;;;;5077331;28;20075;-76
2023/04/18 02:04:40;;;;;;;14.20;6.85;;;9.40;84.80;;;;;;5061211;28;20043;-76
2023/04/18 02:07:06;;;;;;;10.75;7.00;;;9.50;83.90;;;;;;5061078;28;20028;-76
2023/04/18 02:09:32;;;;;;;8.27;5.95;;;9.70;84.00;;;;;;5060961;28;20460;-76
2023/04/18 02:11:58;;;;;;;10.50;6.40;;;9.90;84.90;;;;;;5061040;28;20036;-77
2023/04/18 02:14:30;;;;;;;12.38;7.78;;;9.90;82.40;;;;;;5061075;28;20035;-76
2023/04/18 02:16:57;;;;;;;13.07;7.85;;;9.80;82.00;;;;;;5077632;28;20028;-76
2023/04/18 02:19:23;;;;;;;10.23;7.50;;;9.50;82.50;;;;;;5061599;28;20044;-76
2023/04/18 02:21:49;;;;;;;16.33;7.50;;;9.40;82.90;;;;;;5061394;28;20064;-76
2023/04/18 02:24:15;;;;;;;9.57;7.13;;;9.30;83.60;;;;;;5095657;28;20029;-76
2023/04/18 02:26:41;;;;;;;12.77;7.30;;;9.00;84.00;;;;;;5095535;28;20038;-76
2023/04/18 02:29:06;;;;;;;12.38;7.85;;;8.90;84.80;;;;;;5077501;28;20067;-76
2023/04/18 02:31:32;;;;;;;10.90;7.47;;;8.80;85.20;;;;;;5077458;28;20456;-76
2023/04/18 02:33:58;;;;;;;15.40;7.70;;;8.70;85.80;;;;;;5061058;28;20464;-75
2023/04/18 02:36:26;;;;;;;11.55;7.28;;;8.70;86.40;;;;;;5077268;28;20408;-76
2023/04/18 02:38:53;;;;;;;11.50;7.70;;;8.90;86.30;;;;;;5078253;28;20024;-76
2023/04/18 02:41:18;;;;;;;10.75;7.47;;;8.80;85.30;;;;;;5077064;28;20043;-77
2023/04/18 02:43:44;;;;;;;10.00;7.40;;;8.70;86.50;;;;;;5076901;28;20025;-76
2023/04/18 02:46:10;;;;;;;10.70;7.03;;;8.80;86.60;;;;;;5060364;28;20039;-76
2023/04/18 02:48:36;;;;;;;14.43;7.85;;;8.90;85.90;;;;;;5076896;28;20058;-76
2023/04/18 02:51:06;;;;;;;12.20;7.20;;;9.00;85.80;;;;;;5094423;28;20101;-76
2023/04/18 02:53:33;;;;;;;10.35;6.90;;;8.90;86.50;;;;;;5060271;28;20028;-76
2023/04/18 02:55:59;;;;;;;10.45;6.70;;;9.00;86.90;;;;;;5076781;28;20028;-75
2023/04/18 02:58:25;;;;;;;16.88;7.93;;;9.00;86.10;;;;;;5077070;28;20349;-75
2023/04/18 03:00:54;;;;;;;14.63;7.22;;;9.10;86.40;;;;;;5076726;28;20515;-76
2023/04/18 03:03:20;;;;;;;10.35;7.60;;;9.00;86.10;;;;;;5076745;28;20413;-76
2023/04/18 03:05:46;;;;;;;14.05;9.27;;;8.80;86.10;;;;;;5094494;28;20050;-78
2023/04/18 03:08:12;;;;;;;11.65;7.80;;;8.60;86.80;;;;;;5077091;28;20078;-76
2023/04/18 03:10:38;;;;;;;15.23;8.00;;;8.40;88.50;;;;;;5094566;28;20040;-76
2023/04/18 03:13:04;;;;;;;12.02;7.55;;;8.40;88.60;;;;;;5094296;28;20035;-76
2023/04/18 03:15:30;;;;;;;10.73;7.07;;;8.60;89.20;;;;;;5094579;28;20028;-76
2023/04/18 03:17:56;;;;;;;11.00;7.80;;;8.70;90.00;;;;;;5076293;28;20039;-76
2023/04/18 03:20:21;;;;;;;12.02;7.93;;;8.80;87.90;;;;;;5094484;28;20482;-76
2023/04/18 03:22:47;;;;;;;14.90;8.80;;;8.70;87.30;;;;;;5059662;28;20040;-77
2023/04/18 03:25:13;;;;;;;13.30;8.18;;;8.70;87.60;;;;;;5094184;28;20031;-76
2023/04/18 03:27:39;;;;;;;11.25;7.30;;;8.40;88.10;;;;;;5094095;28;20031;-76
2023/04/18 03:30:06;;;;;;;11.07;7.57;;;8.40;89.90;;;;;;5094581;28;20479;-76
2023/04/18 03:32:35;;;;;;;11.73;6.75;;;8.40;90.40;;;;;;5076278;28;20052;-76
2023/04/18 03:35:01;;;;;;;13.18;8.43;;;8.60;90.50;;;;;;5076731;28;20028;-76
2023/04/18 03:37:26;;;;;;;12.82;8.38;;;8.80;88.50;;;;;;5075995;28;20031;-76
2023/04/18 03:39:52;;;;;;;13.48;6.90;;;8.60;88.40;;;;;;5094353;28;20457;-76
2023/04/18 03:42:17;;;;;;;13.52;7.85;;;8.70;89.40;;;;;;5076150;28;20024;-77
2023/04/18 03:44:43;;;;;;;11.85;8.02;;;8.80;89.20;;;;;;5093882;28;20032;-76
2023/04/18 03:47:09;;;;;;;13.35;8.48;;;8.70;88.40;;;;;;5076182;28;20353;-76
2023/04/18 03:49:34;;;;;;;14.38;7.97;;;8.60;89.20;;;;;;5076177;28;20123;-76
2023/04/18 03:52:00;;;;;;;12.35;8.25;;;8.40;90.00;;;;;;5075688;28;20107;-76
2023/04/18 03:54:26;;;;;;;15.50;8.63;;;8.30;90.20;;;;;;5076359;28;20042;-76
2023/04/18 03:56:51;;;;;;;14.60;9.27;;;8.30;90.40;;;;;;5076031;28;20353;-76
2023/04/18 03:59:17;;;;;;;13.55;8.80;;;8.40;90.60;;;;;;5059590;28;20040;-76
2023/04/18 04:01:43;;;;;;;14.90;8.38;;;8.30;90.50;;;;;;5072113;28;20048;-76
2023/04/18 04:04:10;;;;;;;12.90;8.50;;;8.30;90.70;;;;;;5072945;28;20037;-76
2023/04/18 04:06:36;;;;;;;13.50;8.52;;;8.40;90.80;;;;;;5056756;28;20028;-76
2023/04/18 04:09:02;;;;;;;13.07;8.95;;;8.60;91.00;;;;;;5072291;28;20438;-76
2023/04/18 04:11:28;;;;;;;12.07;8.40;;;8.70;90.50;;;;;;5072517;28;20376;-76
2023/04/18 04:13:53;;;;;;;12.23;7.80;;;8.70;90.50;;;;;;5055641;28;20055;-76
2023/04/18 04:16:19;;;;;;;12.68;8.32;;;8.80;90.60;;;;;;5072339;28;20028;-77
2023/04/18 04:18:45;;;;;;;16.25;9.10;;;8.90;90.60;;;;;;5072511;28;20051;-76
2023/04/18 04:21:10;;;;;;;11.85;8.48;;;8.80;90.50;;;;;;5073833;28;20032;-76
2023/04/18 04:23:36;;;;;;;13.65;8.43;;;8.60;90.90;;;;;;5072321;28;20029;-76
2023/04/18 04:26:02;;;;;;;14.93;8.65;;;8.60;91.00;;;;;;5071805;28;20040;-76
2023/04/18 04:28:29;;;;;;;14.00;8.70;;;8.70;91.20;;;;;;5072274;28;20028;-76
2023/04/18 04:30:55;;;;;;;14.50;8.52;;;8.70;91.10;;;;;;5072965;28;20468;-76
2023/04/18 04:33:27;;;;;;;13.38;7.97;;;8.80;91.40;;;;;;5072270;28;20052;-76
2023/04/18 04:35:56;;;;;;;14.35;9.23;;;8.90;91.30;;;;;;5072682;28;20403;-76
2023/04/18 04:38:22;;;;;;;13.35;7.30;;;8.90;91.10;;;;;;5071810;28;20082;-76
2023/04/18 04:40:48;;;;;;;12.45;8.85;;;9.10;91.50;;;;;;5073290;28;20037;-77
2023/04/18 04:43:15;;;;;;;15.10;9.15;;;9.20;91.10;;;;;;5073068;28;20024;-76
2023/04/18 04:45:44;;;;;;;12.60;7.85;;;9.10;91.10;;;;;;5073283;28;20048;-76
2023/04/18 04:48:10;;;;;;;12.20;8.77;;;9.10;91.30;;;;;;5073516;28;20120;-76
2023/04/18 04:50:37;;;;;;;11.93;8.52;;;9.00;91.30;;;;;;5054951;28;20036;-76
2023/04/18 04:53:04;;;;;;;13.93;9.10;;;9.10;91.60;;;;;;5072944;28;20020;-76
2023/04/18 04:55:29;;;;;;;13.52;8.80;;;9.10;91.50;;;;;;5055474;28;20063;-76
2023/04/18 04:57:56;;;;;;;13.32;9.30;;;9.00;91.70;;;;;;5072376;28;20029;-76
2023/04/18 05:00:22;;;;;;;16.88;10.00;;;8.90;91.90;;;;;;5071853;28;20029;-76
2023/04/18 05:02:48;;;;;;;15.68;9.57;;;8.70;92.50;;;;;;5071817;28;20067;-77
2023/04/18 05:05:13;;;;;;;15.77;9.63;;;8.60;93.00;;;;;;5071821;28;20040;-76
2023/04/18 05:07:39;;;;;;;15.35;8.77;;;8.60;93.20;;;;;;5071770;28;20028;-76
2023/04/18 05:10:05;;;;;;;14.98;8.45;;;8.70;93.30;;;;;;5071974;28;20040;-76
2023/04/18 05:12:31;;;;;;;15.65;8.98;;;8.80;93.10;;;;;;5072828;28;20086;-76
2023/04/18 05:14:56;;;;;;;13.30;9.43;;;8.70;93.30;;;;;;5075064;28;20437;-76
2023/04/18 05:17:22;;;;;;;14.88;8.02;;;8.80;93.70;;;;;;5076042;28;20545;-76
2023/04/18 05:19:48;;;;;;;13.18;9.23;;;9.00;93.60;;;;;;5075028;28;20090;-76
2023/04/18 05:22:14;;;;;;;14.02;9.07;;;9.20;93.00;;;;;;5075022;28;20068;-76
2023/04/18 05:24:40;;;;;;;14.40;8.85;;;9.00;93.20;;;;;;5075278;28;20033;-76
2023/04/18 05:27:06;;;;;;;12.90;9.48;;;9.00;93.50;;;;;;5075161;28;20097;-76
2023/04/18 05:29:31;;;;;;;14.02;9.90;;;9.00;93.60;;;;;;5076387;28;20040;-76
2023/04/18 05:31:57;;;;;;;12.55;8.45;;;9.10;93.80;;;;;;5076566;28;20108;-76
2023/04/18 05:34:23;;;;;;;11.43;8.90;;;9.00;94.10;;;;;;5076283;28;20552;-76
2023/04/18 05:36:49;;;;;;;14.13;8.82;;;9.10;93.80;;;;;;5075975;28;20028;-77
2023/04/18 05:39:15;;;;;;;13.40;9.10;;;9.10;93.80;;;;;;5075473;28;20039;-77
2023/04/18 05:41:41;;;;;;;14.35;8.90;;;8.90;94.00;;;;;;5075004;28;20046;-77
2023/04/18 05:44:07;;;;;;;16.10;9.43;;;8.90;94.40;;;;;;5076010;28;20024;-76
2023/04/18 05:46:33;;;;;;;16.08;9.38;;;8.80;94.70;;;;;;5075613;28;20025;-76
2023/04/18 05:48:59;;;;;;;14.88;9.27;;;8.80;95.00;;;;;;5057991;28;20040;-77
2023/04/18 05:51:25;;;;;;;10.48;8.32;;;8.90;95.00;;;;;;5075657;28;20016;-76
2023/04/18 05:53:51;;;;;;;16.38;9.48;;;8.80;95.40;;;;;;5074451;28;20070;-76
2023/04/18 05:56:16;;;;;;;13.07;9.05;;;8.80;95.30;;;;;;5057974;28;20021;-77
2023/04/18 05:58:44;;;;;;;16.02;9.10;;;8.70;95.90;;;;;;5074616;28;20052;-77
2023/04/18 06:01:10;;;;;;;12.38;8.60;;;8.80;96.00;;;;;;5059603;28;20562;-79
2023/04/18 06:03:36;;;;;;;17.55;8.65;;;8.80;96.10;;;;;;5078316;28;20036;-78
2023/04/18 06:06:02;;;;;;;12.93;8.75;;;9.00;96.10;;;;;;5078101;28;20112;-78
2023/04/18 06:08:28;;;;;;;14.70;9.70;;;9.10;95.60;;;;;;5044602;28;20375;-78
2023/04/18 06:10:53;;;;;;;17.67;9.07;;;9.10;95.70;;;;;;5077859;28;20529;-79
2023/04/18 06:13:19;;;;;;;14.35;8.88;;;8.90;96.10;;;;;;5095342;28;20067;-77
2023/04/18 06:15:45;;;;;;;13.10;8.57;;;8.80;96.30;;;;;;5061019;28;20024;-76
2023/04/18 06:18:11;;;;;;;16.70;9.05;;;8.90;96.60;;;;;;5078077;28;20081;-77
2023/04/18 06:20:36;;;;;;;15.13;8.98;;;9.10;97.10;;;;;;5060829;28;20376;-78
2023/04/18 06:23:02;;;;;;;15.45;9.20;;;9.10;96.80;;;;;;5077125;28;20533;-77
2023/04/18 06:25:28;;;;;;;14.93;9.65;;;9.00;96.90;;;;;;5043121;28;20487;-78
2023/04/18 06:27:54;;;;;;;15.25;9.45;;;9.00;97.00;;;;;;5076990;28;20032;-76
2023/04/18 06:30:20;;;;;;;13.52;8.73;;;9.00;97.10;;;;;;5060340;28;20480;-77
2023/04/18 06:32:46;;;;;;;13.82;8.90;;;8.90;97.50;;;;;;5077077;28;20050;-78
2023/04/18 06:35:12;;;;;;;12.20;9.00;;;8.90;97.60;;;;;;5077075;28;20055;-77
2023/04/18 06:37:42;;;;;;;14.18;9.27;;;9.00;97.70;;;;;;5095407;28;20047;-78
2023/04/18 06:40:09;;;;;;;11.02;8.70;;;9.10;97.70;;;;;;5077898;28;20056;-77
2023/04/18 06:42:35;;;;;;;11.30;8.20;;;9.30;97.50;;;;;;5060019;28;20036;-77
2023/04/18 06:45:02;;;;;;;11.23;8.30;;;9.30;97.30;;;;;;5076682;28;20477;-78
2023/04/18 06:47:28;;;;;;;13.25;8.63;;;9.20;97.60;;;;;;5077155;28;20052;-77
2023/04/18 06:49:54;;;;;;;12.10;8.00;;;9.30;97.40;;;;;;5059779;28;20426;-77
2023/04/18 06:52:19;;;;;;;11.52;8.32;;;9.30;97.30;;;;;;5095161;28;20078;-78
2023/04/18 06:54:45;;;;;;;11.65;7.40;;;9.40;97.40;;;;;;5060137;28;20403;-78
2023/04/18 06:57:13;;;;;;;11.60;7.50;;;9.50;97.30;;;;;;5060034;28;20028;-78
2023/04/18 06:59:40;;;;;;;11.20;7.43;;;9.50;97.30;;;;;;5060335;28;20032;-78
2023/04/18 07:02:07;;;;;;;12.73;7.53;;;9.60;97.20;;;;;;5072727;28;20055;-80
2023/04/18 07:04:32;;;;;;;9.13;6.80;;;9.70;96.90;;;;;;5072870;28;20119;-78
2023/04/18 07:06:58;;;;;;;11.23;6.95;;;9.70;96.90;;;;;;5072831;28;20052;-78
2023/04/18 07:09:24;;;;;;;9.05;6.57;;;9.90;96.60;;;;;;5074554;28;20037;-79
2023/04/18 07:11:51;;;;;;;10.45;5.85;;;9.90;96.90;;;;;;5056353;28;20032;-79
2023/04/18 07:14:18;;;;;;;10.82;6.75;;;10.10;96.40;;;;;;5056503;28;20032;-78
2023/04/18 07:16:45;;;;;;;7.78;6.20;;;10.30;96.10;;;;;;5041072;28;20032;-78
2023/04/18 07:19:11;;;;;;;7.97;6.30;;;10.40;96.00;;;;;;5074456;28;20036;-78
2023/04/18 07:21:39;;;;;;;10.70;6.60;;;10.50;95.70;;;;;;5074083;28;20056;-78
2023/04/18 07:24:05;;;;;;;9.65;6.00;;;10.60;95.30;;;;;;5074450;28;20029;-78
2023/04/18 07:26:31;;;;;;;8.70;6.18;;;10.60;95.10;;;;;;5074031;28;20043;-78
2023/04/18 07:28:56;;;;;;;11.50;6.30;;;10.70;95.60;;;;;;5073658;28;20493;-78
2023/04/18 07:31:24;;;;;;;8.35;6.22;;;10.90;95.20;;;;;;5072832;28;20028;-77
2023/04/18 07:33:50;;;;;;;7.72;5.75;;;11.00;94.40;;;;;;5072736;28;20098;-77
2023/04/18 07:36:16;;;;;;;7.53;5.38;;;11.00;94.50;;;;;;5072504;28;20028;-77
2023/04/18 07:38:43;;;;;;;12.05;5.75;;;11.20;94.20;;;;;;5073884;28;20470;-77
2023/04/18 07:41:09;;;;;;;7.25;5.78;;;11.40;93.60;;;;;;5071873;28;20037;-78
2023/04/18 07:43:35;;;;;;;7.03;5.55;;;11.30;94.20;;;;;;5072393;28;20124;-78
2023/04/18 07:46:00;;;;;;;7.18;5.72;;;11.40;93.70;;;;;;5072405;28;20086;-79
2023/04/18 07:48:26;;;;;;;6.78;4.95;;;11.50;93.40;;;;;;5072839;28;20388;-77
2023/04/18 07:50:52;;;;;;;9.18;6.75;;;11.60;93.80;;;;;;5056370;28;20534;-78
2023/04/18 07:53:18;;;;;;;7.03;5.68;;;11.70;93.10;;;;;;5072482;28;20028;-78
2023/04/18 07:55:45;;;;;;;8.18;5.40;;;11.70;92.90;;;;;;5056654;28;20537;-77
2023/04/18 07:58:11;;;;;;;6.88;5.30;;;11.80;92.70;;;;;;5072387;28;20119;-78
2023/04/18 08:00:41;;;;;;;7.07;5.50;;;11.80;92.70;;;;;;5072010;28;20063;-77
2023/04/18 08:03:09;;;;;;;7.75;5.60;;;11.80;92.60;;;;;;5091709;28;20048;-77
2023/04/18 08:05:35;;;;;;;8.15;5.25;;;11.70;92.90;;;;;;5075504;28;20031;-77
2023/04/18 08:08:01;;;;;;;6.43;5.10;;;11.80;93.10;;;;;;5042413;28;20024;-77
2023/04/18 08:10:27;;;;;;;7.30;5.72;;;11.80;92.60;;;;;;5058713;28;20039;-77
2023/04/18 08:12:59;;;;;;;6.85;5.50;;;12.00;93.40;;;;;;5093507;28;20399;-77
2023/04/18 08:15:26;;;;;;;8.32;5.47;;;12.20;93.00;;;;;;5059516;28;20476;-76
2023/04/18 08:17:58;;;;;;;7.50;5.30;;;12.40;92.50;;;;;;5093493;28;20021;-79
2023/04/18 08:20:24;;;;;;;7.82;4.95;;;12.30;91.50;;;;;;5075564;28;20129;-76
2023/04/18 08:22:50;;;;;;;6.22;5.22;;;12.40;91.60;;;;;;5075204;28;20115;-77
2023/04/18 08:25:16;;;;;;;10.98;5.78;;;12.30;91.50;;;;;;5093168;28;20098;-77
2023/04/18 08:27:42;;;;;;;7.68;5.57;;;12.20;92.20;;;;;;5093502;28;20024;-78
2023/04/18 08:30:09;;;;;;;11.75;5.50;;;12.10;92.10;;;;;;5092910;28;20040;-78
2023/04/18 08:32:38;;;;;;;6.20;5.20;;;12.20;92.30;;;;;;5093180;28;20028;-77
2023/04/18 08:35:04;;;;;;;6.88;5.13;;;12.10;92.10;;;;;;5093279;28;20032;-77
2023/04/18 08:37:30;;;;;;;7.75;5.28;;;12.00;92.50;;;;;;5042260;28;20478;-78
2023/04/18 08:39:56;;;;;;;7.40;4.88;;;11.80;92.50;;;;;;5093384;28;20081;-78
2023/04/18 08:42:22;;;;;;;5.50;4.82;;;11.80;92.70;;;;;;5075020;28;20028;-78
2023/04/18 08:44:48;;;;;;;6.95;4.88;;;11.80;93.30;;;;;;5075146;28;20029;-80
2023/04/18 08:47:15;;;;;;;5.85;5.18;;;11.80;93.30;;;;;;5041885;28;20039;-79
2023/04/18 08:49:44;;;;;;;7.30;4.90;;;11.70;93.20;;;;;;5095201;28;20093;-78
2023/04/18 08:52:12;;;;;;;5.93;4.90;;;11.60;93.60;;;;;;5063105;28;20031;-78
2023/04/18 08:54:45;;;;;;;6.60;4.90;;;11.70;93.90;;;;;;5062370;28;20105;-78
2023/04/18 08:57:28;;;;;;;6.25;4.82;;;11.80;93.50;;;;;;5062332;28;20036;-78
2023/04/18 08:59:55;;;;;;;6.78;4.85;;;11.70;94.00;;;;;;5078870;28;20040;-79
2023/04/18 09:02:33;;;;;;;7.65;5.20;;;11.70;93.90;;;;;;5075225;28;20056;-78
2023/04/18 09:04:59;;;;;;;5.85;4.32;;;11.80;94.10;;;;;;5075978;28;20033;-78
2023/04/18 09:07:28;;;;;;;5.65;4.20;;;11.80;93.80;;;;;;5058780;28;20102;-78
2023/04/18 09:09:56;;;;;;;5.57;4.60;;;12.00;93.40;;;;;;5076354;28;20033;-78
2023/04/18 09:12:26;;;;;;;5.53;4.07;;;12.10;93.10;;;;;;5076633;28;20032;-79
2023/04/18 09:15:15;;;;;;;7.60;3.75;;;12.10;92.80;;;;;;5076616;28;20035;-78
2023/04/18 09:17:44;;;;;;;5.45;4.35;;;12.10;92.80;;;;;;5076704;28;20020;-77
2023/04/18 09:20:11;;;;;;;5.47;4.28;;;12.10;93.10;;;;;;5075262;28;20036;-78
2023/04/18 09:22:56;;;;;;;5.53;4.22;;;12.10;92.90;;;;;;5075264;28;20036;-78
2023/04/18 09:25:43;;;;;;;5.22;4.10;;;12.00;92.90;;;;;;5075539;28;20135;-78
2023/04/18 09:28:32;;;;;;;6.30;4.72;;;12.00;92.80;;;;;;5075661;28;20052;-77
2023/04/18 09:31:10;;;;;;;5.70;3.95;;;12.00;93.50;;;;;;5076737;28;20047;-78
2023/04/18 09:33:36;;;;;;;6.35;4.20;;;12.00;93.10;;;;;;5075633;28;20032;-78
2023/04/18 09:36:36;;;;;;;9.00;4.60;;;12.10;93.10;;;;;;5075032;28;20033;-78
2023/04/18 09:39:02;;;;;;;6.40;4.28;;;12.00;93.30;;;;;;5031580;28;20507;-78
2023/04/18 09:41:29;;;;;;;5.75;4.43;;;12.00;93.60;;;;;;5074907;28;20036;-78
2023/04/18 09:44:21;;;;;;;4.82;4.10;;;12.10;93.30;;;;;;5058390;28;20390;-78
2023/04/18 09:46:48;;;;;;;5.82;4.15;;;12.10;93.60;;;;;;5070896;28;20056;-78
2023/04/18 09:49:14;;;;;;;4.57;4.03;;;12.10;93.40;;;;;;5074386;28;21946;-77
2023/04/18 09:51:43;;;;;;;6.38;3.88;;;12.20;93.20;;;;;;5058696;28;20037;-78
2023/04/18 09:54:13;;;;;;;6.32;3.67;;;12.10;93.30;;;;;;5074495;28;20025;-79
2023/04/18 09:56:44;;;;;;;4.65;4.05;;;12.20;93.30;;;;;;5074438;28;20024;-78
2023/04/18 09:59:11;;;;;;;5.97;4.13;;;12.30;93.50;;;;;;5075730;28;20028;-79
2023/04/18 10:01:39;;;;;;;6.75;4.40;;;12.30;93.40;;;;;;5079634;28;20090;-78
2023/04/18 10:04:06;;;;;;;4.00;3.50;;;12.40;93.10;;;;;;5095853;28;20081;-78
2023/04/18 10:06:38;;;;;;;4.53;3.70;;;12.50;92.50;;;;;;5060669;28;20028;-78
2023/04/18 10:09:05;;;;;;;5.50;3.88;;;12.60;92.20;;;;;;5061742;28;20425;-79
2023/04/18 10:11:31;;;;;;;4.05;3.55;;;12.40;92.50;;;;;;5095787;28;20103;-78
2023/04/18 10:14:02;;;;;;;5.80;3.72;;;12.40;92.70;;;;;;5060717;28;20028;-78
2023/04/18 10:16:28;;;;;;;5.70;3.72;;;12.50;92.40;;;;;;5077916;28;20532;-78
2023/04/18 10:18:54;;;;;;;4.10;3.63;;;12.50;92.40;;;;;;5095444;28;20092;-79
2023/04/18 10:21:20;;;;;;;4.53;3.75;;;12.60;91.80;;;;;;5060566;28;20564;-78
2023/04/18 10:23:47;;;;;;;4.38;3.90;;;12.80;92.50;;;;;;5060875;28;20032;-78
2023/04/18 10:26:14;;;;;;;6.47;4.05;;;12.90;91.70;;;;;;5095728;28;20056;-79
2023/04/18 10:28:57;;;;;;;5.88;4.43;;;13.10;92.30;;;;;;5076807;28;20080;-79
2023/04/18 10:31:28;;;;;;;6.70;4.10;;;13.30;92.60;;;;;;5095643;28;20055;-79
2023/04/18 10:33:58;;;;;;;4.97;3.85;;;13.40;91.80;;;;;;5077682;28;20376;-79
2023/04/18 10:36:26;;;;;;;4.43;3.63;;;13.60;90.80;;;;;;5077086;28;20024;-79
2023/04/18 10:38:54;;;;;;;7.13;4.50;;;13.70;90.40;;;;;;5076999;28;20054;-79
2023/04/18 10:41:28;;;;;;;7.30;4.30;;;13.80;90.40;;;;;;5060392;28;20032;-80
2023/04/18 10:44:06;;;;;;;5.15;4.15;;;13.70;90.70;;;;;;5076740;28;20071;-79
2023/04/18 10:46:35;;;;;;;6.90;4.50;;;13.70;89.00;;;;;;5076810;28;20039;-79
2023/04/18 10:49:22;;;;;;;6.85;5.05;;;13.70;88.80;;;;;;5076377;28;20024;-79
2023/04/18 10:51:50;;;;;;;5.82;4.30;;;13.60;89.70;;;;;;5060060;28;20039;-78
2023/04/18 10:54:37;;;;;;;8.52;5.38;;;13.50;89.90;;;;;;5077156;28;20028;-76
2023/04/18 10:57:06;;;;;;;7.57;4.30;;;13.50;89.60;;;;;;5077348;28;20047;-77
2023/04/18 10:59:36;;;;;;;6.50;5.35;;;13.40;89.40;;;;;;5077129;28;20045;-77
2023/04/18 11:02:24;;;;;;;6.65;5.25;;;13.30;89.80;;;;;;5072721;28;20052;-76
2023/04/18 11:04:51;;;;;;;7.00;5.57;;;13.20;90.30;;;;;;5073592;28;20072;-78
2023/04/18 11:07:17;;;;;;;7.70;5.60;;;13.20;90.80;;;;;;5074366;28;20425;-79
2023/04/18 11:09:55;;;;;;;7.22;5.47;;;13.10;90.90;;;;;;5040212;28;20029;-78
2023/04/18 11:12:21;;;;;;;8.98;5.15;;;13.10;91.00;;;;;;5055318;28;20036;-78
2023/04/18 11:14:50;;;;;;;15.07;7.05;;;13.30;91.70;;;;;;5072679;28;20025;-79
2023/04/18 11:17:28;;;;;;;10.40;5.85;;;13.50;92.00;;;;;;5056184;28;20053;-80
2023/04/18 11:20:07;;;;;;;16.25;6.28;;;13.70;91.60;;;;;;5072321;28;20111;-79
2023/04/18 11:22:45;;;;;;;7.47;5.32;;;13.90;92.10;;;;;;5057183;28;20089;-79
2023/04/18 11:25:11;;;;;;;9.23;6.20;;;14.00;90.30;;;;;;5072832;28;20028;-79
2023/04/18 11:27:39;;;;;;;7.57;5.80;;;14.20;90.20;;;;;;5073058;28;20063;-79
2023/04/18 11:30:06;;;;;;;8.45;5.93;;;14.10;88.20;;;;;;5073361;28;20077;-79
2023/04/18 11:32:34;;;;;;;7.00;5.47;;;14.10;88.40;;;;;;5072217;28;20028;-79
2023/04/18 11:35:00;;;;;;;7.25;5.68;;;14.00;88.40;;;;;;5057610;28;20029;-79
2023/04/18 11:37:25;;;;;;;8.23;5.65;;;13.90;88.70;;;;;;5040713;28;20109;-79
2023/04/18 11:39:55;;;;;;;8.10;6.55;;;13.80;89.00;;;;;;5072477;28;20431;-79
2023/04/18 11:42:26;;;;;;;8.45;6.68;;;13.70;89.80;;;;;;5056637;28;20036;-78
2023/04/18 11:44:51;;;;;;;10.00;6.18;;;13.50;90.20;;;;;;5074119;28;20167;-79
2023/04/18 11:47:32;;;;;;;7.72;6.90;;;13.50;90.60;;;;;;5072604;28;20056;-78
2023/04/18 11:50:00;;;;;;;9.38;6.50;;;13.50;90.80;;;;;;5072302;28;20028;-78
2023/04/18 11:52:28;;;;;;;7.47;6.20;;;13.60;90.90;;;;;;5073509;28;20546;-78
2023/04/18 11:54:55;;;;;;;8.90;7.00;;;13.60;90.80;;;;;;5073177;28;20354;-78
2023/04/18 11:57:28;;;;;;;7.28;6.28;;;13.50;90.90;;;;;;5072426;28;20033;-79
2023/04/18 11:59:58;;;;;;;9.20;7.00;;;13.40;91.20;;;;;;5055274;28;20124;-79
2023/04/18 12:02:44;;;;;;;9.48;7.35;;;13.50;91.20;;;;;;5071646;28;20044;-78
2023/04/18 12:05:13;;;;;;;9.40;6.90;;;13.50;91.10;;;;;;5072907;28;20272;-78
2023/04/18 12:07:41;;;;;;;10.20;6.90;;;13.50;91.10;;;;;;5055868;28;20055;-77
2023/04/18 12:10:22;;;;;;;8.43;6.63;;;13.40;91.20;;;;;;5073321;28;20181;-77
2023/04/18 12:12:54;;;;;;;8.77;6.63;;;13.50;91.40;;;;;;5072513;28;20088;-78
2023/04/18 12:15:25;;;;;;;9.53;7.77;;;13.40;91.30;;;;;;5073218;28;20025;-78
2023/04/18 12:17:55;;;;;;;12.10;8.02;;;13.50;91.20;;;;;;5071586;28;20457;-79
2023/04/18 12:20:23;;;;;;;20.42;8.60;;;13.50;91.70;;;;;;5071936;28;20021;-77
2023/04/18 12:22:50;;;;;;;13.90;8.63;;;13.50;91.70;;;;;;5054229;28;20032;-78
2023/04/18 12:25:25;;;;;;;10.07;7.95;;;13.40;91.70;;;;;;5076189;28;20468;-76
2023/04/18 12:28:02;;;;;;;10.77;8.60;;;13.30;91.90;;;;;;5075575;28;20035;-77
2023/04/18 12:30:33;;;;;;;9.45;7.85;;;13.30;92.20;;;;;;5076143;28;20469;-77
2023/04/18 12:33:03;;;;;;;14.02;8.75;;;13.40;92.30;;;;;;5076274;28;20111;-78
2023/04/18 12:35:30;;;;;;;12.68;9.95;;;13.50;91.70;;;;;;5076439;28;20115;-78
2023/04/18 12:37:58;;;;;;;11.40;8.90;;;13.60;91.60;;;;;;5075562;28;20115;-77
2023/04/18 12:40:25;;;;;;;11.70;8.48;;;13.60;91.60;;;;;;5059531;28;20040;-78
2023/04/18 12:42:52;;;;;;;10.45;9.25;;;13.60;91.50;;;;;;5059215;28;20127;-78
2023/04/18 12:45:19;;;;;;;13.98;9.70;;;13.70;91.40;;;;;;5076079;28;20044;-77
2023/04/18 12:47:47;;;;;;;13.05;9.80;;;13.70;91.50;;;;;;5075848;28;20393;-77